createdAt,value
2022-10-11T00:02:19.286Z,96256.47
2022-10-11T00:07:21.980Z,96263.56
2022-10-11T00:12:23.589Z,96267.88
2022-10-11T00:17:25.443Z,96266.28
2022-10-11T00:22:27.828Z,96272.16
2022-10-11T00:27:29.663Z,96271.34
2022-10-11T00:32:34.081Z,96269.38
2022-10-11T00:37:38.024Z,96271.34
2022-10-11T00:42:39.887Z,96272.13
2022-10-11T00:47:42.134Z,96268.97
2022-10-11T00:52:50.066Z,96268.91
2022-10-11T00:57:54.528Z,96260.28
2022-10-11T01:02:57.733Z,96262.97
2022-10-11T01:08:00.848Z,96241.34
2022-10-11T01:13:35.760Z,96250.00
2022-10-11T01:18:52.544Z,96252.34
2022-10-11T01:24:08.786Z,96256.66
2022-10-11T01:29:30.057Z,96259.41
2022-10-11T01:34:47.946Z,96256.25
2022-10-11T01:39:57.631Z,96259.78
2022-10-11T01:45:00.229Z,96263.31
2022-10-11T01:50:02.616Z,96259.34
2022-10-11T01:55:24.024Z,96261.75
2022-10-11T02:00:33.507Z,96264.50
2022-10-11T02:05:57.460Z,96262.97
2022-10-11T02:11:22.358Z,96259.84
2022-10-11T02:16:30.266Z,96261.06
2022-10-11T02:21:39.404Z,96260.66
2022-10-11T02:26:43.870Z,96258.34
2022-10-11T02:31:47.455Z,96264.25
2022-10-11T02:37:02.251Z,96273.69
2022-10-11T02:42:10.470Z,96277.22
2022-10-11T02:47:13.105Z,96282.78
2022-10-11T02:52:14.871Z,96273.75
2022-10-11T02:57:16.902Z,96281.22
2022-10-11T03:02:19.282Z,96287.13
2022-10-11T03:07:20.906Z,96282.41
2022-10-11T03:12:22.833Z,96293.41
2022-10-11T03:17:36.050Z,96301.66
2022-10-11T03:22:38.754Z,96303.63
2022-10-11T03:27:40.383Z,96307.91
2022-10-11T03:32:42.135Z,96307.91
2022-10-11T03:37:44.020Z,96317.75
2022-10-11T03:42:46.433Z,96315.84
2022-10-11T03:47:48.333Z,96315.09
2022-10-11T03:52:51.154Z,96321.03
2022-10-11T03:57:52.800Z,96323.78
2022-10-11T04:02:54.607Z,96326.94
2022-10-11T04:07:56.624Z,96332.03
2022-10-11T04:12:58.254Z,96337.16
2022-10-11T04:17:59.984Z,96337.16
2022-10-11T04:23:01.771Z,96343.81
2022-10-11T04:28:03.501Z,96336.38
2022-10-11T04:33:05.314Z,96332.06
2022-10-11T04:38:06.954Z,96344.25
2022-10-11T04:43:08.620Z,96344.66
2022-10-11T04:48:10.287Z,96346.19
2022-10-11T04:53:11.914Z,96352.09
2022-10-11T04:58:13.509Z,96346.19
2022-10-11T05:03:15.086Z,96351.66
2022-10-11T05:08:16.936Z,96357.13
2022-10-11T05:13:18.552Z,96359.09
2022-10-11T05:18:20.471Z,96367.31
2022-10-11T05:23:23.464Z,96372.41
2022-10-11T05:28:26.009Z,96376.31
2022-10-11T05:33:27.748Z,96369.63
2022-10-11T05:38:29.454Z,96375.50
2022-10-11T05:43:31.505Z,96382.19
2022-10-11T05:48:34.737Z,96392.38
2022-10-11T05:53:39.320Z,96398.25
2022-10-11T05:58:41.249Z,96404.91
2022-10-11T06:03:44.567Z,96410.41
2022-10-11T06:08:46.608Z,96414.72
2022-10-11T06:13:48.945Z,96419.44
2022-10-11T06:18:54.698Z,96428.91
2022-10-11T06:24:01.196Z,96434.00
2022-10-11T06:29:03.749Z,96432.81
2022-10-11T06:34:05.602Z,96437.94
2022-10-11T06:39:07.487Z,96439.47
2022-10-11T06:44:14.172Z,96447.34
2022-10-11T06:49:20.672Z,96448.94
2022-10-11T06:54:26.978Z,96454.03
2022-10-11T06:59:32.412Z,96465.03
2022-10-11T07:04:34.279Z,96474.50
2022-10-11T07:09:37.342Z,96472.53
2022-10-11T07:14:40.427Z,96478.38
2022-10-11T07:19:42.040Z,96476.78
2022-10-11T07:24:43.859Z,96473.97
2022-10-11T07:29:45.520Z,96488.16
2022-10-11T07:34:47.194Z,96492.81
2022-10-11T07:39:49.390Z,96497.88
2022-10-11T07:44:51.632Z,96497.06
2022-10-11T07:49:53.226Z,96486.78
2022-10-11T07:54:55.020Z,96498.16
2022-10-11T07:59:56.802Z,96500.84
2022-10-11T08:04:58.517Z,96510.66
2022-10-11T08:10:00.143Z,96509.06
2022-10-11T08:15:04.039Z,96516.16
2022-10-11T08:20:05.966Z,96524.00
2022-10-11T08:25:07.897Z,96524.81
2022-10-11T08:30:10.490Z,96524.03
2022-10-11T08:35:12.150Z,96527.56
2022-10-11T08:40:21.345Z,96529.16
2022-10-11T08:45:49.133Z,96530.75
2022-10-11T08:50:54.557Z,96530.72
2022-10-11T08:55:56.233Z,96537.00
2022-10-11T09:00:59.366Z,96551.53
2022-10-11T09:06:16.314Z,96539.72
2022-10-11T09:11:24.897Z,96535.72
2022-10-11T09:17:07.441Z,96530.59
2022-10-11T09:22:24.789Z,96536.84
2022-10-11T09:28:06.670Z,96538.72
2022-10-11T09:33:19.086Z,96535.84
2022-10-11T09:38:43.539Z,96543.28
2022-10-11T09:43:48.556Z,96543.25
2022-10-11T09:48:52.742Z,96540.88
2022-10-11T09:54:06.425Z,96545.19
2022-10-11T09:59:20.373Z,96545.94
2022-10-11T10:04:21.997Z,96535.28
2022-10-11T10:09:31.199Z,96546.66
2022-10-11T10:14:32.817Z,96530.03
2022-10-11T10:19:49.019Z,96541.78
2022-10-11T10:24:51.955Z,96544.47
2022-10-11T10:30:08.707Z,96542.81
2022-10-11T10:35:26.215Z,96543.13
2022-10-11T10:40:37.594Z,96542.22
2022-10-11T10:46:14.075Z,96542.50
2022-10-11T10:51:38.434Z,96549.53
2022-10-11T10:57:03.265Z,96547.47
2022-10-11T11:02:40.844Z,96546.31
2022-10-11T11:08:00.355Z,96539.88
2022-10-11T11:13:35.753Z,96533.06
2022-10-11T11:18:43.656Z,96530.50
2022-10-11T11:24:05.058Z,96530.31
2022-10-11T11:29:24.435Z,96536.09
2022-10-11T11:34:33.336Z,96534.84
2022-10-11T11:39:44.986Z,96537.19
2022-10-11T11:44:49.434Z,96532.84
2022-10-11T11:50:00.001Z,96534.91
2022-10-11T11:55:15.472Z,96532.94
2022-10-11T12:00:23.486Z,96534.22
2022-10-11T12:05:28.922Z,96534.22
2022-10-11T12:10:36.692Z,96538.16
2022-10-11T12:15:38.477Z,96535.59
2022-10-11T12:20:42.009Z,96528.56
2022-10-11T12:25:44.649Z,96515.91
2022-10-11T12:30:50.929Z,96511.53
2022-10-11T12:35:52.988Z,96512.78
2022-10-11T12:41:10.699Z,96516.78
2022-10-11T12:46:33.573Z,96519.09
2022-10-11T12:51:57.181Z,96520.50
2022-10-11T12:57:29.141Z,96527.84
2022-10-11T13:02:42.674Z,96525.72
2022-10-11T13:07:45.454Z,96520.09
2022-10-11T13:12:49.085Z,96520.38
2022-10-11T13:17:54.115Z,96522.66
2022-10-11T13:22:57.034Z,96514.34
2022-10-11T13:28:01.436Z,96515.47
2022-10-11T13:33:09.525Z,96511.88
2022-10-11T13:38:23.929Z,96515.00
2022-10-11T13:43:28.574Z,96514.16
2022-10-11T13:48:32.097Z,96510.53
2022-10-11T13:53:34.286Z,96501.84
2022-10-11T13:58:47.288Z,96494.91
2022-10-11T14:04:17.345Z,96489.63
2022-10-11T14:09:33.897Z,96494.66
2022-10-11T14:14:35.798Z,96489.41
2022-10-11T14:24:39.891Z,96489.22
2022-10-11T14:30:00.261Z,96492.31
2022-10-11T14:35:07.183Z,96496.66
2022-10-11T14:40:18.059Z,96486.03
2022-10-11T14:45:21.242Z,96491.13
2022-10-11T14:50:31.966Z,96490.38
2022-10-11T14:55:36.710Z,96490.72
2022-10-11T15:00:38.391Z,96489.91
2022-10-11T15:05:40.259Z,96486.78
2022-10-11T15:10:42.170Z,96490.38
2022-10-11T15:15:43.851Z,96481.69
2022-10-11T15:20:46.711Z,96488.78
2022-10-11T15:25:48.384Z,96495.91
2022-10-11T15:30:49.990Z,96491.56
2022-10-11T15:35:51.674Z,96490.78
2022-10-11T15:40:54.868Z,96493.97
2022-10-11T15:45:58.032Z,96481.41
2022-10-11T15:50:59.897Z,96484.66
2022-10-11T15:56:05.123Z,96492.66
2022-10-11T16:01:14.802Z,96486.47
2022-10-11T16:06:17.705Z,96497.66
2022-10-11T16:11:19.525Z,96492.28
2022-10-11T16:16:21.105Z,96490.81
2022-10-11T16:21:24.159Z,96483.09
2022-10-11T16:26:25.703Z,96478.09
2022-10-11T16:31:27.808Z,96478.66
2022-10-11T16:36:32.497Z,96478.38
2022-10-11T16:41:34.263Z,96486.81
2022-10-11T16:46:35.923Z,96488.13
2022-10-11T16:51:37.458Z,96490.22
2022-10-11T16:56:40.213Z,96497.47
2022-10-11T17:01:42.775Z,96501.09
2022-10-11T17:06:44.973Z,96500.41
2022-10-11T17:11:46.716Z,96500.53
2022-10-11T17:16:48.405Z,96500.19
2022-10-11T17:21:50.216Z,96502.63
2022-10-11T17:26:53.401Z,96503.88
2022-10-11T17:31:55.464Z,96509.06
2022-10-11T17:36:57.170Z,96506.00
2022-10-11T17:42:03.395Z,96512.41
2022-10-11T17:47:05.182Z,96513.69
2022-10-11T17:52:06.808Z,96509.78
2022-10-11T17:57:10.160Z,96500.00
2022-10-11T18:02:11.799Z,96506.72
2022-10-11T18:07:13.567Z,96509.59
2022-10-11T18:12:15.186Z,96503.31
2022-10-11T18:17:17.809Z,96500.59
2022-10-11T18:22:19.511Z,96488.81
2022-10-11T18:27:21.334Z,96484.53
2022-10-11T18:32:23.957Z,96481.44
2022-10-11T18:37:28.143Z,96492.53
2022-10-11T18:42:29.808Z,96485.88
2022-10-11T18:47:31.397Z,96488.28
2022-10-11T18:52:33.105Z,96498.19
2022-10-11T18:57:34.913Z,96496.28
2022-10-11T19:02:36.611Z,96488.47
2022-10-11T19:07:40.222Z,96494.41
2022-10-11T19:12:41.814Z,96496.81
2022-10-11T19:17:43.700Z,96494.50
2022-10-11T19:22:46.789Z,96497.69
2022-10-11T19:27:48.387Z,96505.53
2022-10-11T19:32:50.460Z,96499.31
2022-10-11T19:37:52.093Z,96500.50
2022-10-11T19:42:53.841Z,96502.53
2022-10-11T19:47:55.431Z,96511.22
2022-10-11T19:52:57.205Z,96510.44
2022-10-11T19:57:58.869Z,96512.44
2022-10-11T20:03:01.458Z,96512.47
2022-10-11T20:08:04.251Z,96517.22
2022-10-11T20:13:11.680Z,96523.13
2022-10-11T20:18:13.423Z,96514.50
2022-10-11T20:23:18.265Z,96522.41
2022-10-11T20:28:20.283Z,96525.56
2022-10-11T20:33:22.243Z,96532.25
2022-10-11T20:38:24.247Z,96518.53
2022-10-11T20:43:26.231Z,96525.63
2022-10-11T20:48:30.093Z,96534.69
2022-10-11T20:53:31.755Z,96533.50
2022-10-11T20:58:34.470Z,96532.34
2022-10-11T21:03:36.542Z,96529.19
2022-10-11T21:08:39.536Z,96525.25
2022-10-11T21:13:41.252Z,96522.13
2022-10-11T21:18:42.906Z,96522.13
2022-10-11T21:23:47.975Z,96524.88
2022-10-11T21:28:49.934Z,96526.84
2022-10-11T21:33:51.884Z,96528.03
2022-10-11T21:38:53.766Z,96524.13
2022-10-11T21:43:56.702Z,96519.00
2022-10-11T21:48:58.679Z,96512.72
2022-10-11T21:54:00.820Z,96508.41
2022-10-11T21:59:06.555Z,96506.84
2022-10-11T22:04:11.936Z,96497.41
2022-10-11T22:09:13.590Z,96508.84
2022-10-11T22:14:15.734Z,96501.34
2022-10-11T22:19:17.391Z,96504.91
2022-10-11T22:24:19.209Z,96506.50
2022-10-11T22:29:21.225Z,96503.34
2022-10-11T22:34:22.992Z,96501.38
2022-10-11T22:39:24.673Z,96497.44
2022-10-11T22:44:26.305Z,96504.53
2022-10-11T22:49:28.619Z,96504.91
2022-10-11T22:54:30.185Z,96504.16
2022-10-11T22:59:32.957Z,96503.38
2022-10-11T23:04:34.905Z,96501.44
2022-10-11T23:09:36.564Z,96492.00
2022-10-11T23:14:38.283Z,96498.31
2022-10-11T23:19:40.376Z,96501.84
2022-10-11T23:24:42.568Z,96500.28
2022-10-11T23:29:46.120Z,96503.44
2022-10-11T23:34:47.779Z,96508.13
2022-10-11T23:39:49.620Z,96506.16
2022-10-11T23:44:52.871Z,96506.56
2022-10-11T23:49:54.621Z,96511.25
2022-10-11T23:54:56.289Z,96498.72
